createdAt,value
2023-02-24T00:01:39.695Z,83.43
2023-02-24T00:04:11.337Z,83.70
2023-02-24T00:06:41.216Z,83.39
2023-02-24T00:09:11.186Z,83.13
2023-02-24T00:11:40.515Z,83.22
2023-02-24T00:14:09.447Z,82.99
2023-02-24T00:16:39.900Z,83.26
2023-02-24T00:19:10.477Z,83.21
2023-02-24T00:21:37.369Z,83.12
2023-02-24T00:24:04.774Z,83.65
2023-02-24T00:26:32.221Z,83.71
2023-02-24T00:29:00.392Z,83.61
2023-02-24T00:31:31.133Z,83.43
2023-02-24T00:34:02.512Z,83.18
2023-02-24T00:36:33.720Z,83.27
2023-02-24T00:39:09.311Z,82.99
2023-02-24T00:41:40.449Z,82.98
2023-02-24T00:44:14.182Z,83.06
2023-02-24T00:46:47.199Z,83.10
2023-02-24T00:49:19.708Z,83.20
2023-02-24T00:51:49.365Z,83.28
2023-02-24T00:54:17.248Z,83.12
2023-02-24T00:56:46.360Z,83.21
2023-02-24T00:59:18.831Z,83.21
2023-02-24T01:01:46.190Z,83.29
2023-02-24T01:04:14.117Z,83.03
2023-02-24T01:06:47.488Z,83.35
2023-02-24T01:09:18.252Z,83.08
2023-02-24T01:12:22.382Z,83.26
2023-02-24T01:14:52.130Z,83.40
2023-02-24T01:17:20.496Z,83.36
2023-02-24T01:19:49.578Z,83.42
2023-02-24T01:22:18.786Z,83.34
2023-02-24T01:24:47.232Z,83.44
2023-02-24T01:27:17.721Z,84.34
2023-02-24T01:29:46.460Z,84.02
2023-02-24T01:32:19.774Z,84.06
2023-02-24T01:34:51.028Z,84.38
2023-02-24T01:37:19.576Z,84.53
2023-02-24T01:39:47.747Z,84.12
2023-02-24T01:42:19.284Z,84.46
2023-02-24T01:44:46.957Z,84.64
2023-02-24T01:47:16.230Z,84.44
2023-02-24T01:49:47.789Z,84.63
2023-02-24T01:52:22.248Z,84.62
2023-02-24T01:54:55.272Z,84.40
2023-02-24T01:57:26.037Z,84.39
2023-02-24T02:00:01.999Z,84.58
2023-02-24T02:02:31.763Z,84.49
2023-02-24T02:05:09.431Z,84.96
2023-02-24T02:07:40.410Z,84.93
2023-02-24T02:10:09.390Z,84.83
2023-02-24T02:12:40.591Z,84.96
2023-02-24T02:15:08.925Z,85.01
2023-02-24T02:17:48.002Z,85.12
2023-02-24T02:20:33.821Z,85.39
2023-02-24T02:23:25.388Z,85.55
2023-02-24T02:25:58.573Z,85.33
2023-02-24T02:28:54.770Z,85.50
2023-02-24T02:31:25.989Z,85.72
2023-02-24T02:34:28.902Z,86.02
2023-02-24T02:37:05.865Z,86.13
2023-02-24T02:39:52.712Z,86.31
2023-02-24T02:42:25.726Z,86.12
2023-02-24T02:45:05.614Z,86.00
2023-02-24T02:47:44.286Z,85.99
2023-02-24T02:50:18.939Z,86.13
2023-02-24T02:52:58.030Z,85.98
2023-02-24T02:55:38.117Z,86.08
2023-02-24T02:58:10.382Z,86.22
2023-02-24T03:01:01.734Z,86.05
2023-02-24T03:03:34.782Z,86.14
2023-02-24T03:06:08.952Z,86.14
2023-02-24T03:08:39.996Z,86.11
2023-02-24T03:11:15.195Z,86.63
2023-02-24T03:13:45.747Z,86.42
2023-02-24T03:16:14.808Z,86.60
2023-02-24T03:18:51.025Z,86.22
2023-02-24T03:21:33.069Z,86.15
2023-02-24T03:24:02.383Z,85.76
2023-02-24T03:26:53.424Z,86.00
2023-02-24T03:29:34.544Z,85.86
2023-02-24T03:32:12.760Z,85.77
2023-02-24T03:34:57.935Z,85.28
2023-02-24T03:37:28.133Z,85.15
2023-02-24T03:39:58.951Z,84.97
2023-02-24T03:42:33.841Z,84.63
2023-02-24T03:45:01.934Z,84.67
2023-02-24T03:47:33.380Z,84.26
2023-02-24T03:50:00.300Z,84.41
2023-02-24T03:52:49.206Z,84.30
2023-02-24T03:55:26.368Z,84.63
2023-02-24T03:58:20.627Z,84.51
2023-02-24T04:01:13.201Z,84.35
2023-02-24T04:03:51.031Z,84.33
2023-02-24T04:06:45.919Z,84.01
2023-02-24T04:09:25.229Z,84.11
2023-02-24T04:12:27.042Z,84.13
2023-02-24T04:15:12.957Z,84.07
2023-02-24T04:17:54.823Z,84.05
2023-02-24T04:20:29.437Z,83.60
2023-02-24T04:23:04.906Z,83.60
2023-02-24T04:25:32.495Z,83.74
2023-02-24T04:28:03.133Z,83.86
2023-02-24T04:30:35.667Z,83.31
2023-02-24T04:33:03.843Z,83.68
2023-02-24T04:35:31.001Z,83.63
2023-02-24T04:37:58.223Z,83.22
2023-02-24T04:40:26.182Z,83.17
2023-02-24T04:42:54.104Z,82.46
2023-02-24T04:45:25.168Z,82.43
2023-02-24T04:48:01.313Z,81.97
2023-02-24T04:50:34.099Z,81.86
2023-02-24T04:53:06.893Z,82.13
2023-02-24T04:55:40.281Z,82.20
2023-02-24T04:58:10.870Z,81.90
2023-02-24T05:00:41.342Z,82.02
2023-02-24T05:03:11.845Z,81.57
2023-02-24T05:05:39.378Z,81.75
2023-02-24T05:08:09.137Z,81.36
2023-02-24T05:10:39.802Z,81.31
2023-02-24T05:13:09.130Z,80.92
2023-02-24T05:15:41.178Z,80.67
2023-02-24T05:18:14.144Z,80.47
2023-02-24T05:21:08.721Z,80.50
2023-02-24T05:23:44.438Z,81.01
2023-02-24T05:26:16.379Z,81.46
2023-02-24T05:28:47.058Z,81.80
2023-02-24T05:31:17.044Z,81.84
2023-02-24T05:33:48.142Z,82.05
2023-02-24T05:36:17.734Z,82.46
2023-02-24T05:38:45.640Z,82.74
2023-02-24T05:41:20.061Z,83.10
2023-02-24T05:43:53.207Z,82.60
2023-02-24T05:46:28.453Z,82.88
2023-02-24T05:48:59.773Z,82.42
2023-02-24T05:51:35.644Z,82.63
2023-02-24T05:54:04.805Z,82.69
2023-02-24T05:56:37.868Z,82.87
2023-02-24T05:59:08.847Z,83.24
2023-02-24T06:01:38.169Z,83.78
2023-02-24T06:04:06.929Z,83.80
2023-02-24T06:06:42.944Z,83.95
2023-02-24T06:09:13.375Z,84.12
2023-02-24T06:11:42.382Z,84.51
2023-02-24T06:14:11.550Z,84.25
2023-02-24T06:16:41.093Z,84.59
2023-02-24T06:19:10.164Z,84.07
2023-02-24T06:21:41.406Z,84.46
2023-02-24T06:24:18.581Z,84.52
2023-02-24T06:26:46.541Z,84.31
2023-02-24T06:29:15.020Z,84.10
2023-02-24T06:31:43.846Z,84.44
2023-02-24T06:34:13.137Z,84.08
2023-02-24T06:36:40.454Z,84.07
2023-02-24T06:39:08.227Z,84.39
2023-02-24T06:41:38.000Z,84.68
2023-02-24T06:44:05.295Z,84.29
2023-02-24T06:46:32.285Z,83.60
2023-02-24T06:48:59.376Z,83.27
2023-02-24T06:51:30.446Z,82.13
2023-02-24T06:53:59.534Z,81.88
2023-02-24T06:56:27.846Z,81.29
2023-02-24T06:58:56.898Z,81.34
2023-02-24T07:01:28.915Z,80.93
2023-02-24T07:04:04.206Z,80.08
2023-02-24T07:06:34.811Z,79.92
2023-02-24T07:09:05.447Z,80.07
2023-02-24T07:11:34.271Z,80.05
2023-02-24T07:14:02.518Z,79.74
2023-02-24T07:16:29.665Z,78.87
2023-02-24T07:18:58.947Z,79.09
2023-02-24T07:21:30.265Z,79.28
2023-02-24T07:23:59.343Z,79.32
2023-02-24T07:26:27.892Z,78.77
2023-02-24T07:28:55.395Z,78.23
2023-02-24T07:31:24.877Z,77.95
2023-02-24T07:33:57.424Z,77.31
2023-02-24T07:36:30.140Z,77.08
2023-02-24T07:38:59.078Z,76.84
2023-02-24T07:41:26.537Z,77.23
2023-02-24T07:43:55.045Z,76.66
2023-02-24T07:46:28.110Z,76.99
2023-02-24T07:48:56.896Z,77.38
2023-02-24T07:51:26.933Z,77.20
2023-02-24T07:53:59.118Z,77.76
2023-02-24T07:56:28.459Z,78.29
2023-02-24T07:59:00.141Z,79.01
2023-02-24T08:01:39.020Z,79.18
2023-02-24T08:04:12.629Z,78.86
2023-02-24T08:06:46.082Z,78.70
2023-02-24T08:09:17.417Z,77.79
2023-02-24T08:11:54.362Z,78.15
2023-02-24T08:14:35.670Z,77.53
2023-02-24T08:17:05.516Z,77.18
2023-02-24T08:19:39.757Z,76.42
2023-02-24T08:22:20.517Z,75.62
2023-02-24T08:24:52.766Z,74.92
2023-02-24T08:27:22.462Z,75.25
2023-02-24T08:30:00.051Z,74.87
2023-02-24T08:32:37.796Z,74.51
2023-02-24T08:35:16.282Z,73.61
2023-02-24T08:37:53.042Z,73.44
2023-02-24T08:40:32.023Z,73.17
2023-02-24T08:43:16.377Z,72.18
2023-02-24T08:45:52.003Z,72.16
2023-02-24T08:48:37.848Z,71.71
2023-02-24T08:51:08.054Z,71.00
2023-02-24T08:53:40.357Z,70.48
2023-02-24T08:56:11.606Z,70.51
2023-02-24T08:58:41.233Z,69.07
2023-02-24T09:01:24.460Z,68.35
2023-02-24T09:03:57.953Z,67.86
2023-02-24T09:06:38.682Z,67.71
2023-02-24T09:09:17.810Z,66.84
2023-02-24T09:11:49.567Z,66.62
2023-02-24T09:14:27.293Z,65.80
2023-02-24T09:17:07.038Z,64.93
2023-02-24T09:19:47.689Z,65.04
2023-02-24T09:22:31.336Z,65.08
2023-02-24T09:25:21.902Z,65.60
2023-02-24T09:27:52.615Z,65.58
2023-02-24T09:30:37.783Z,65.73
2023-02-24T09:33:23.670Z,66.33
2023-02-24T09:35:53.486Z,66.46
2023-02-24T09:38:42.551Z,66.34
2023-02-24T09:41:45.265Z,67.70
2023-02-24T09:44:19.884Z,68.75
2023-02-24T09:46:57.272Z,69.27
2023-02-24T09:49:40.156Z,69.75
2023-02-24T09:52:18.955Z,69.79
2023-02-24T09:55:27.009Z,69.75
2023-02-24T09:58:16.360Z,68.88
2023-02-24T10:00:57.348Z,68.50
2023-02-24T10:03:42.632Z,67.33
2023-02-24T10:06:13.498Z,66.09
2023-02-24T10:08:55.992Z,66.01
2023-02-24T10:11:33.630Z,66.37
2023-02-24T10:14:07.329Z,65.85
2023-02-24T10:16:43.229Z,65.35
2023-02-24T10:19:23.659Z,65.23
2023-02-24T10:22:02.849Z,65.43
2023-02-24T10:24:48.446Z,65.57
2023-02-24T10:27:27.310Z,65.31
2023-02-24T10:30:27.987Z,65.53
2023-02-24T10:33:00.532Z,65.81
2023-02-24T10:35:33.985Z,65.51
2023-02-24T10:38:05.788Z,64.67
2023-02-24T10:40:47.148Z,63.89
2023-02-24T10:43:19.724Z,63.99
2023-02-24T10:45:48.152Z,63.06
2023-02-24T10:48:42.947Z,63.22
2023-02-24T10:51:20.753Z,64.31
2023-02-24T10:54:28.593Z,64.50
2023-02-24T10:57:18.281Z,64.87
2023-02-24T11:00:13.442Z,65.11
2023-02-24T11:03:08.227Z,64.18
2023-02-24T11:05:44.006Z,63.96
2023-02-24T11:08:46.895Z,62.93
2023-02-24T11:11:34.148Z,62.66
2023-02-24T11:14:21.196Z,62.21
2023-02-24T11:17:15.068Z,62.12
2023-02-24T11:19:47.689Z,60.84
2023-02-24T11:22:20.538Z,60.14
2023-02-24T11:24:48.531Z,59.75
2023-02-24T11:27:18.435Z,59.84
2023-02-24T11:30:06.496Z,58.52
2023-02-24T11:32:49.766Z,57.94
2023-02-24T11:35:37.084Z,57.63
2023-02-24T11:38:28.035Z,57.66
2023-02-24T11:41:14.698Z,55.53
2023-02-24T11:43:45.627Z,56.85
2023-02-24T11:46:17.359Z,54.21
2023-02-24T11:48:51.999Z,53.42
2023-02-24T11:51:24.873Z,52.50
2023-02-24T11:54:00.139Z,52.89
2023-02-24T11:56:32.077Z,52.87
2023-02-24T11:59:14.867Z,55.13
2023-02-24T12:02:14.674Z,54.39
2023-02-24T12:04:51.079Z,52.63
2023-02-24T12:07:42.508Z,52.04
2023-02-24T12:10:32.304Z,52.30
2023-02-24T12:13:11.877Z,51.13
2023-02-24T12:15:55.558Z,51.16
2023-02-24T12:18:37.353Z,51.70
2023-02-24T12:21:06.823Z,51.14
2023-02-24T12:23:35.390Z,51.62
2023-02-24T12:26:15.778Z,51.68
2023-02-24T12:29:12.226Z,52.45
2023-02-24T12:31:54.370Z,52.08
2023-02-24T12:34:43.542Z,52.50
2023-02-24T12:37:48.984Z,53.37
2023-02-24T12:40:31.168Z,52.93
2023-02-24T12:43:33.301Z,52.46
2023-02-24T12:46:09.450Z,52.30
2023-02-24T12:48:39.356Z,51.80
2023-02-24T12:51:27.315Z,51.92
2023-02-24T12:54:34.938Z,52.27
2023-02-24T12:57:27.323Z,53.59
2023-02-24T12:59:57.678Z,55.57
2023-02-24T13:02:28.056Z,58.22
2023-02-24T13:05:51.782Z,58.38
2023-02-24T13:08:28.560Z,60.57
2023-02-24T13:11:13.843Z,61.95
2023-02-24T13:13:46.480Z,64.15
2023-02-24T13:16:13.502Z,64.15
2023-02-24T13:18:40.642Z,63.77
2023-02-24T13:21:22.605Z,63.82
2023-02-24T13:23:58.020Z,63.64
2023-02-24T13:26:27.779Z,63.35
2023-02-24T13:29:10.075Z,62.96
2023-02-24T13:31:46.711Z,62.41
2023-02-24T13:34:25.932Z,63.22
2023-02-24T13:36:53.135Z,65.06
2023-02-24T13:39:44.410Z,66.80
2023-02-24T13:42:20.592Z,68.37
2023-02-24T13:44:53.196Z,69.55
2023-02-24T13:47:20.037Z,69.51
2023-02-24T13:50:08.859Z,69.82
2023-02-24T13:52:57.645Z,69.70
2023-02-24T13:55:39.821Z,69.55
2023-02-24T13:58:16.048Z,69.31
2023-02-24T14:00:58.229Z,69.71
2023-02-24T14:03:28.249Z,70.02
2023-02-24T14:05:59.215Z,71.92
2023-02-24T14:08:35.473Z,72.40
2023-02-24T14:11:07.660Z,72.69
2023-02-24T14:13:36.716Z,72.24
2023-02-24T14:16:08.888Z,72.93
2023-02-24T14:18:37.421Z,74.12
2023-02-24T14:21:04.813Z,74.85
2023-02-24T14:23:34.040Z,75.23
2023-02-24T14:26:12.411Z,75.36
2023-02-24T14:28:40.402Z,75.14
2023-02-24T14:31:14.417Z,75.14
2023-02-24T14:33:44.777Z,75.40
2023-02-24T14:36:18.817Z,75.38
2023-02-24T14:38:45.778Z,75.79
2023-02-24T14:41:25.950Z,75.65
2023-02-24T14:43:53.846Z,75.19
2023-02-24T14:46:21.195Z,75.38
2023-02-24T14:48:54.899Z,76.02
2023-02-24T14:51:32.968Z,76.10
2023-02-24T14:54:04.079Z,75.59
2023-02-24T14:56:33.703Z,75.01
2023-02-24T14:59:03.247Z,74.51
2023-02-24T15:01:33.133Z,74.11
2023-02-24T15:04:09.910Z,74.45
2023-02-24T15:06:40.905Z,75.30
2023-02-24T15:09:22.149Z,75.03
2023-02-24T15:11:53.294Z,75.00
2023-02-24T15:14:27.986Z,74.59
2023-02-24T15:17:16.207Z,74.64
2023-02-24T15:19:46.955Z,74.36
2023-02-24T15:22:23.113Z,74.43
2023-02-24T15:24:51.678Z,74.24
2023-02-24T15:27:18.598Z,74.44
2023-02-24T15:29:57.932Z,74.83
2023-02-24T15:32:27.615Z,74.99
2023-02-24T15:34:54.592Z,74.93
2023-02-24T15:37:33.481Z,74.93
2023-02-24T15:40:06.969Z,75.49
2023-02-24T15:42:35.547Z,75.94
2023-02-24T15:45:04.195Z,76.27
2023-02-24T15:47:45.683Z,76.47
2023-02-24T15:50:13.329Z,76.54
2023-02-24T15:52:41.092Z,76.52
2023-02-24T15:55:14.111Z,76.93
2023-02-24T15:57:41.083Z,77.23
2023-02-24T16:00:14.954Z,77.79
2023-02-24T16:02:42.299Z,78.21
2023-02-24T16:05:13.998Z,78.30
2023-02-24T16:07:44.308Z,78.46
2023-02-24T16:10:21.486Z,78.56
2023-02-24T16:13:00.820Z,78.52
2023-02-24T16:15:38.030Z,78.93
2023-02-24T16:18:14.184Z,79.42
2023-02-24T16:20:41.781Z,79.55
2023-02-24T16:23:10.468Z,79.95
2023-02-24T16:25:44.980Z,80.17
2023-02-24T16:28:21.965Z,80.63
2023-02-24T16:30:50.574Z,80.88
2023-02-24T16:33:19.494Z,81.49
2023-02-24T16:35:46.611Z,81.53
2023-02-24T16:38:15.328Z,81.57
2023-02-24T16:40:45.281Z,81.25
2023-02-24T16:43:13.452Z,81.87
2023-02-24T16:45:42.163Z,82.08
2023-02-24T16:48:21.826Z,82.27
2023-02-24T16:50:49.299Z,82.61
2023-02-24T16:53:19.051Z,82.70
2023-02-24T16:55:47.830Z,82.85
2023-02-24T16:58:15.621Z,82.72
2023-02-24T17:00:45.834Z,83.08
2023-02-24T17:03:28.591Z,83.50
2023-02-24T17:05:55.961Z,83.92
2023-02-24T17:08:23.784Z,84.20
2023-02-24T17:10:51.577Z,84.46
2023-02-24T17:13:20.997Z,84.45
2023-02-24T17:15:49.936Z,84.24
2023-02-24T17:18:16.846Z,84.51
2023-02-24T17:20:43.973Z,84.13
2023-02-24T17:23:11.726Z,84.54
2023-02-24T17:25:38.898Z,84.43
2023-02-24T17:28:07.408Z,84.16
2023-02-24T17:30:35.467Z,84.12
2023-02-24T17:33:03.251Z,84.22
2023-02-24T17:35:30.552Z,84.20
2023-02-24T17:37:57.638Z,84.06
2023-02-24T17:40:24.927Z,83.73
2023-02-24T17:42:51.912Z,83.73
2023-02-24T17:45:20.004Z,83.61
2023-02-24T17:47:47.298Z,83.77
2023-02-24T17:50:14.352Z,83.03
2023-02-24T17:52:41.523Z,83.57
2023-02-24T17:55:09.429Z,83.58
2023-02-24T17:57:36.881Z,83.81
2023-02-24T18:00:05.294Z,83.35
2023-02-24T18:02:40.015Z,83.33
2023-02-24T18:05:08.151Z,83.53
2023-02-24T18:07:35.130Z,83.53
2023-02-24T18:10:02.794Z,82.84
2023-02-24T18:12:31.436Z,82.38
2023-02-24T18:15:07.728Z,81.85
2023-02-24T18:17:35.826Z,81.42
2023-02-24T18:20:04.130Z,81.44
2023-02-24T18:22:31.383Z,81.53
2023-02-24T18:24:59.284Z,81.24
2023-02-24T18:27:26.328Z,81.33
2023-02-24T18:29:54.152Z,81.24
2023-02-24T18:32:21.899Z,81.41
2023-02-24T18:34:49.284Z,80.69
2023-02-24T18:37:16.177Z,80.69
2023-02-24T18:39:43.210Z,80.56
2023-02-24T18:42:10.145Z,80.28
2023-02-24T18:44:37.116Z,80.19
2023-02-24T18:47:09.466Z,80.92
2023-02-24T18:49:37.377Z,80.98
2023-02-24T18:52:05.475Z,80.89
2023-02-24T18:54:34.092Z,81.06
2023-02-24T18:57:01.932Z,81.38
2023-02-24T18:59:29.055Z,81.71
2023-02-24T19:01:57.248Z,81.93
2023-02-24T19:04:25.283Z,82.02
2023-02-24T19:06:52.229Z,81.96
2023-02-24T19:09:21.863Z,82.00
2023-02-24T19:11:50.354Z,81.77
2023-02-24T19:14:17.777Z,81.92
2023-02-24T19:16:45.319Z,82.00
2023-02-24T19:19:14.652Z,81.88
2023-02-24T19:21:42.310Z,81.84
2023-02-24T19:24:11.165Z,82.09
2023-02-24T19:26:38.826Z,82.26
2023-02-24T19:29:06.354Z,82.37
2023-02-24T19:31:33.806Z,82.83
2023-02-24T19:34:03.987Z,82.85
2023-02-24T19:36:32.531Z,83.08
2023-02-24T19:38:59.471Z,82.80
2023-02-24T19:41:26.852Z,82.86
2023-02-24T19:43:53.969Z,82.98
2023-02-24T19:46:21.226Z,83.51
2023-02-24T19:48:48.997Z,83.48
2023-02-24T19:51:21.343Z,83.60
2023-02-24T19:53:52.436Z,83.56
2023-02-24T19:56:28.334Z,83.72
2023-02-24T19:58:57.402Z,84.13
2023-02-24T20:01:26.111Z,84.21
2023-02-24T20:03:58.943Z,84.50
2023-02-24T20:06:31.078Z,84.43
2023-02-24T20:08:58.587Z,84.63
2023-02-24T20:11:26.281Z,84.83
2023-02-24T20:13:53.544Z,85.02
2023-02-24T20:16:23.735Z,85.38
2023-02-24T20:18:51.747Z,85.57
2023-02-24T20:21:18.876Z,85.78
2023-02-24T20:23:45.753Z,86.04
2023-02-24T20:26:16.636Z,86.20
2023-02-24T20:28:45.286Z,86.33
2023-02-24T20:31:15.394Z,86.35
2023-02-24T20:33:43.880Z,86.26
2023-02-24T20:36:13.709Z,86.45
2023-02-24T20:38:41.034Z,86.31
2023-02-24T20:41:08.333Z,86.45
2023-02-24T20:43:35.702Z,86.63
2023-02-24T20:46:24.903Z,87.02
2023-02-24T20:48:55.796Z,87.28
2023-02-24T20:51:23.523Z,87.73
2023-02-24T20:53:57.207Z,87.95
2023-02-24T20:56:29.293Z,88.06
2023-02-24T20:59:01.991Z,88.34
2023-02-24T21:01:31.047Z,88.64
2023-02-24T21:03:58.549Z,88.60
2023-02-24T21:06:26.749Z,88.78
2023-02-24T21:08:53.924Z,88.89
2023-02-24T21:11:23.091Z,89.08
2023-02-24T21:13:51.542Z,89.15
2023-02-24T21:16:21.016Z,89.10
2023-02-24T21:18:49.963Z,89.26
2023-02-24T21:21:17.544Z,89.42
2023-02-24T21:23:44.749Z,89.58
2023-02-24T21:26:13.313Z,89.54
2023-02-24T21:28:40.998Z,89.59
2023-02-24T21:31:13.941Z,89.79
2023-02-24T21:33:41.267Z,90.37
2023-02-24T21:36:13.548Z,90.61
2023-02-24T21:38:41.431Z,90.64
2023-02-24T21:41:13.341Z,90.60
2023-02-24T21:43:41.508Z,90.90
2023-02-24T21:46:11.668Z,91.00
2023-02-24T21:48:40.724Z,90.96
2023-02-24T21:51:09.988Z,91.11
2023-02-24T21:53:39.514Z,91.28
2023-02-24T21:56:18.472Z,91.82
2023-02-24T21:59:00.116Z,91.52
2023-02-24T22:01:32.864Z,91.70
2023-02-24T22:04:02.237Z,91.60
2023-02-24T22:06:32.028Z,91.20
2023-02-24T22:09:01.198Z,91.28
2023-02-24T22:11:31.203Z,91.19
2023-02-24T22:13:58.555Z,91.21
2023-02-24T22:16:26.200Z,90.80
2023-02-24T22:18:55.381Z,90.56
2023-02-24T22:21:24.840Z,90.72
2023-02-24T22:23:54.965Z,90.80
2023-02-24T22:26:23.853Z,90.94
2023-02-24T22:28:51.561Z,90.75
2023-02-24T22:31:21.222Z,90.69
2023-02-24T22:33:49.379Z,90.66
2023-02-24T22:36:20.341Z,91.14
2023-02-24T22:38:47.999Z,91.46
2023-02-24T22:41:20.634Z,91.47
2023-02-24T22:43:48.117Z,91.45
2023-02-24T22:46:30.339Z,91.80
2023-02-24T22:48:57.783Z,92.09
2023-02-24T22:51:25.665Z,92.22
2023-02-24T22:53:53.404Z,92.17
2023-02-24T22:56:23.667Z,92.43
2023-02-24T22:58:51.328Z,92.42
2023-02-24T23:01:24.201Z,92.73
2023-02-24T23:03:52.077Z,92.81
2023-02-24T23:06:22.893Z,92.94
2023-02-24T23:08:51.537Z,92.74
2023-02-24T23:11:41.367Z,92.75
2023-02-24T23:14:13.845Z,92.99
2023-02-24T23:16:44.641Z,93.32
2023-02-24T23:19:16.278Z,93.50
2023-02-24T23:21:50.030Z,93.76
2023-02-24T23:24:18.055Z,93.79
2023-02-24T23:26:48.455Z,93.68
2023-02-24T23:29:17.521Z,93.84
2023-02-24T23:31:45.397Z,93.92
2023-02-24T23:34:12.346Z,93.87
2023-02-24T23:36:43.638Z,93.93
2023-02-24T23:39:13.297Z,94.12
2023-02-24T23:41:44.317Z,94.52
2023-02-24T23:44:12.463Z,94.94
2023-02-24T23:46:39.522Z,95.28
2023-02-24T23:49:06.476Z,94.87
2023-02-24T23:51:50.136Z,95.07
2023-02-24T23:54:18.126Z,95.12
2023-02-24T23:56:45.358Z,95.00
2023-02-24T23:59:12.378Z,94.83
